sensor_id;sensor_type;location;lat;lon;timestamp;temperature;humidity
6954;DHT22;3516;47.980;8.808;2023-10-19T12:22:24;12.30;99.90
6954;DHT22;3516;47.980;8.808;2023-10-19T12:24:53;17.30;99.90
6954;DHT22;3516;47.980;8.808;2023-10-19T12:27:20;17.30;99.90
6954;DHT22;3516;47.980;8.808;2023-10-19T12:29:46;17.20;99.90
6954;DHT22;3516;47.980;8.808;2023-10-19T12:32:13;17.30;99.90
6954;DHT22;3516;47.980;8.808;2023-10-19T12:34:40;17.30;99.90
6954;DHT22;3516;47.980;8.808;2023-10-19T12:37:06;17.30;99.90
6954;DHT22;3516;47.980;8.808;2023-10-19T12:39:36;17.30;99.90
6954;DHT22;3516;47.980;8.808;2023-10-19T12:42:08;17.30;99.90
6954;DHT22;3516;47.980;8.808;2023-10-19T12:44:35;17.40;99.90
6954;DHT22;3516;47.980;8.808;2023-10-19T12:47:06;17.40;99.90
6954;DHT22;3516;47.980;8.808;2023-10-19T12:49:35;17.40;99.90
6954;DHT22;3516;47.980;8.808;2023-10-19T12:52:01;17.50;99.90
6954;DHT22;3516;47.980;8.808;2023-10-19T12:54:29;17.50;99.90
6954;DHT22;3516;47.980;8.808;2023-10-19T12:56:57;17.60;99.90
6954;DHT22;3516;47.980;8.808;2023-10-19T12:59:23;17.50;99.90
6954;DHT22;3516;47.980;8.808;2023-10-19T13:01:50;17.50;99.90
6954;DHT22;3516;47.980;8.808;2023-10-19T13:04:20;17.50;99.90
6954;DHT22;3516;47.980;8.808;2023-10-19T13:06:49;17.50;99.90
6954;DHT22;3516;47.980;8.808;2023-10-19T13:09:15;17.50;99.90
6954;DHT22;3516;47.980;8.808;2023-10-19T13:11:47;17.60;99.90
6954;DHT22;3516;47.980;8.808;2023-10-19T13:14:18;17.50;99.90
6954;DHT22;3516;47.980;8.808;2023-10-19T13:16:45;17.60;99.90
6954;DHT22;3516;47.980;8.808;2023-10-19T13:19:13;17.60;99.90
6954;DHT22;3516;47.980;8.808;2023-10-19T13:21:41;17.70;99.90
6954;DHT22;3516;47.980;8.808;2023-10-19T13:24:09;17.70;99.90
6954;DHT22;3516;47.980;8.808;2023-10-19T13:26:36;17.70;99.90
6954;DHT22;3516;47.980;8.808;2023-10-19T13:29:03;17.70;99.90
6954;DHT22;3516;47.980;8.808;2023-10-19T13:31:31;17.70;99.90
6954;DHT22;3516;47.980;8.808;2023-10-19T13:33:58;17.70;99.90
6954;DHT22;3516;47.980;8.808;2023-10-19T13:36:25;17.70;99.90
6954;DHT22;3516;47.980;8.808;2023-10-19T13:38:51;17.70;99.90
6954;DHT22;3516;47.980;8.808;2023-10-19T13:41:19;17.60;99.90
6954;DHT22;3516;47.980;8.808;2023-10-19T13:43:45;17.60;99.90
6954;DHT22;3516;47.980;8.808;2023-10-19T13:46:12;17.50;99.90
6954;DHT22;3516;47.980;8.808;2023-10-19T13:48:40;17.40;99.90
6954;DHT22;3516;47.980;8.808;2023-10-19T13:51:07;17.30;99.90
6954;DHT22;3516;47.980;8.808;2023-10-19T13:53:38;17.30;99.90
6954;DHT22;3516;47.980;8.808;2023-10-19T13:56:07;17.20;99.90
6954;DHT22;3516;47.980;8.808;2023-10-19T13:58:34;17.10;99.90
6954;DHT22;3516;47.980;8.808;2023-10-19T14:01:00;17.10;99.90
6954;DHT22;3516;47.980;8.808;2023-10-19T14:03:28;17.10;99.90
6954;DHT22;3516;47.980;8.808;2023-10-19T14:05:57;17.00;99.90
6954;DHT22;3516;47.980;8.808;2023-10-19T14:08:24;17.00;99.90
6954;DHT22;3516;47.980;8.808;2023-10-19T14:10:50;16.90;99.90
6954;DHT22;3516;47.980;8.808;2023-10-19T14:13:17;16.90;99.90
6954;DHT22;3516;47.980;8.808;2023-10-19T14:15:43;16.90;99.90
6954;DHT22;3516;47.980;8.808;2023-10-19T14:18:10;16.80;99.90
6954;DHT22;3516;47.980;8.808;2023-10-19T14:20:37;16.80;99.90
6954;DHT22;3516;47.980;8.808;2023-10-19T14:23:05;16.70;99.90
6954;DHT22;3516;47.980;8.808;2023-10-19T14:25:35;16.70;99.90
6954;DHT22;3516;47.980;8.808;2023-10-19T14:28:02;16.60;99.90
6954;DHT22;3516;47.980;8.808;2023-10-19T14:30:32;16.50;99.90
6954;DHT22;3516;47.980;8.808;2023-10-19T14:32:58;16.40;99.90
6954;DHT22;3516;47.980;8.808;2023-10-19T14:35:25;16.30;99.90
6954;DHT22;3516;47.980;8.808;2023-10-19T14:37:53;16.30;99.90
6954;DHT22;3516;47.980;8.808;2023-10-19T14:40:22;16.20;99.90
6954;DHT22;3516;47.980;8.808;2023-10-19T14:42:50;16.10;99.90
6954;DHT22;3516;47.980;8.808;2023-10-19T14:45:19;16.00;99.90
6954;DHT22;3516;47.980;8.808;2023-10-19T14:47:46;15.90;99.90
6954;DHT22;3516;47.980;8.808;2023-10-19T14:50:13;15.90;99.90
6954;DHT22;3516;47.980;8.808;2023-10-19T14:52:40;15.90;99.90
6954;DHT22;3516;47.980;8.808;2023-10-19T14:55:08;15.90;99.90
6954;DHT22;3516;47.980;8.808;2023-10-19T14:57:36;16.00;99.90
6954;DHT22;3516;47.980;8.808;2023-10-19T15:00:04;16.00;99.90
6954;DHT22;3516;47.980;8.808;2023-10-19T15:02:40;16.00;99.90
6954;DHT22;3516;47.980;8.808;2023-10-19T15:05:07;15.90;99.90
6954;DHT22;3516;47.980;8.808;2023-10-19T15:07:33;15.90;99.90
6954;DHT22;3516;47.980;8.808;2023-10-19T15:10:02;15.80;99.90
6954;DHT22;3516;47.980;8.808;2023-10-19T15:12:28;15.70;99.90
6954;DHT22;3516;47.980;8.808;2023-10-19T15:14:56;15.70;99.90
6954;DHT22;3516;47.980;8.808;2023-10-19T15:17:25;15.70;99.90
6954;DHT22;3516;47.980;8.808;2023-10-19T15:19:51;15.60;99.90
6954;DHT22;3516;47.980;8.808;2023-10-19T15:22:18;15.60;99.90
6954;DHT22;3516;47.980;8.808;2023-10-19T15:24:45;15.50;99.90
6954;DHT22;3516;47.980;8.808;2023-10-19T15:27:11;15.40;99.90
